Time;durP1;ratioP1;P1;durP2;ratioP2;P2;SDS_P1;SDS_P2;PMS_P1;PMS_P2;Temp;Humidity;BMP_temperature;BMP_pressure;BME280_temperature;BME280_humidity;BME280_pressure;Samples;Min_cycle;Max_cycle;Signal;HPM_P1;HPM_P2
2023/08/10 00:00:11;;;;;;;15.77;3.63;;;;;;;13.63;100.00;101720.38;4973185;28;20059;-81
2023/08/10 00:02:39;;;;;;;8.88;2.72;;;;;;;13.71;100.00;101719.13;4972919;28;20454;-78
2023/08/10 00:05:06;;;;;;;10.40;3.47;;;;;;;13.77;100.00;101721.03;4966712;28;20073;-79
2023/08/10 00:07:34;;;;;;;8.32;3.70;;;;;;;13.81;100.00;101715.41;4968308;28;20093;-77
2023/08/10 00:10:02;;;;;;;10.88;3.47;;;;;;;13.84;100.00;101717.38;4956141;28;20058;-77
2023/08/10 00:12:29;;;;;;;11.57;3.47;;;;;;;13.84;100.00;101712.56;4971682;28;20484;-78
2023/08/10 00:14:56;;;;;;;12.20;3.47;;;;;;;13.92;100.00;101716.09;4972787;28;20590;-77
2023/08/10 00:17:23;;;;;;;13.05;3.28;;;;;;;13.90;100.00;101710.91;4951683;29;20051;-77
2023/08/10 00:19:49;;;;;;;10.15;3.15;;;;;;;13.91;100.00;101717.31;4964918;28;20051;-77
2023/08/10 00:22:16;;;;;;;13.07;3.83;;;;;;;13.92;100.00;101714.09;4978186;28;20113;-77
2023/08/10 00:24:42;;;;;;;12.35;3.45;;;;;;;13.91;100.00;101714.50;4973581;28;20089;-77
2023/08/10 00:27:09;;;;;;;7.75;2.78;;;;;;;13.92;100.00;101710.50;4970127;28;20089;-77
2023/08/10 00:29:36;;;;;;;8.00;2.92;;;;;;;13.96;100.00;101714.03;4954417;28;20058;-78
2023/08/10 00:32:03;;;;;;;9.90;3.40;;;;;;;13.94;100.00;101705.28;4952104;28;20110;-77
2023/08/10 00:34:30;;;;;;;12.45;3.53;;;;;;;13.97;100.00;101707.22;4970163;28;20055;-80
2023/08/10 00:36:56;;;;;;;13.75;3.08;;;;;;;13.87;100.00;101705.38;4971146;28;20059;-80
2023/08/10 00:39:23;;;;;;;9.98;3.22;;;;;;;13.83;100.00;101710.19;4954668;28;20055;-77
2023/08/10 00:41:50;;;;;;;7.50;3.17;;;;;;;13.83;100.00;101710.19;4971238;28;20118;-76
2023/08/10 00:44:17;;;;;;;10.95;3.75;;;;;;;13.83;100.00;101711.00;4965629;28;20130;-77
2023/08/10 00:46:44;;;;;;;15.80;3.70;;;;;;;13.85;100.00;101722.56;4969747;28;20062;-79
2023/08/10 00:49:11;;;;;;;11.85;4.30;;;;;;;13.81;100.00;101712.63;4966779;28;20055;-78
2023/08/10 00:51:38;;;;;;;10.32;3.10;;;;;;;13.81;100.00;101710.59;4970367;28;20109;-78
2023/08/10 00:54:05;;;;;;;11.35;3.38;;;;;;;13.83;100.00;101712.97;4970806;28;20137;-79
2023/08/10 00:56:32;;;;;;;8.18;3.00;;;;;;;13.76;100.00;101711.06;4970200;28;20047;-76
2023/08/10 00:58:59;;;;;;;11.32;3.75;;;;;;;13.77;100.00;101711.88;4971868;28;20078;-82
2023/08/10 01:01:25;;;;;;;14.27;3.80;;;;;;;13.85;100.00;101719.78;4968937;28;20055;-80
2023/08/10 01:03:52;;;;;;;8.80;3.17;;;;;;;13.84;100.00;101709.00;4969919;28;20907;-76
2023/08/10 01:06:32;;;;;;;16.85;3.80;;;;;;;13.88;100.00;101718.91;4971203;28;20046;-78
2023/08/10 01:09:10;;;;;;;11.77;3.10;;;;;;;13.92;100.00;101722.50;4972301;28;20055;-78
2023/08/10 01:11:40;;;;;;;14.88;3.70;;;;;;;13.94;100.00;101727.66;4971238;28;20050;-77
2023/08/10 01:14:25;;;;;;;10.02;3.67;;;;;;;13.94;100.00;101734.03;4971354;28;20518;-78
2023/08/10 01:16:55;;;;;;;10.43;3.28;;;;;;;13.95;100.00;101723.66;4969614;28;20109;-81
2023/08/10 01:19:30;;;;;;;17.25;3.67;;;;;;;13.93;100.00;101717.66;4964616;28;20762;-79
2023/08/10 01:22:20;;;;;;;10.82;3.60;;;;;;;13.87;100.00;101722.94;4978790;28;20063;-79
2023/08/10 01:25:06;;;;;;;14.07;3.10;;;;;;;13.87;100.00;101727.75;4971845;28;20721;-77
2023/08/10 01:27:34;;;;;;;11.50;3.22;;;;;;;13.90;100.00;101732.47;4965296;28;20065;-74
2023/08/10 01:30:03;;;;;;;7.88;2.63;;;;;;;13.87;100.00;101727.75;4949231;28;20747;-77
2023/08/10 01:32:32;;;;;;;10.80;2.72;;;;;;;13.84;100.00;101737.72;4954835;28;20051;-77
2023/08/10 01:35:00;;;;;;;12.73;3.58;;;;;;;13.80;100.00;101750.16;4971981;28;20054;-78
2023/08/10 01:37:26;;;;;;;10.45;3.30;;;;;;;13.76;100.00;101753.00;4975212;28;20050;-78
2023/08/10 01:39:53;;;;;;;9.02;3.13;;;;;;;13.77;100.00;101751.00;4969441;28;20129;-78
2023/08/10 01:42:19;;;;;;;9.23;3.10;;;;;;;13.79;100.00;101754.16;4969742;28;20462;-77
2023/08/10 01:44:46;;;;;;;7.82;3.20;;;;;;;13.75;100.00;101756.19;4970978;28;20125;-80
2023/08/10 01:47:36;;;;;;;13.10;4.10;;;;;;;13.67;100.00;101752.69;4968348;28;20078;-78
2023/08/10 01:50:06;;;;;;;9.32;3.28;;;;;;;13.70;100.00;101765.03;4971047;28;20059;-78
2023/08/10 01:52:53;;;;;;;11.75;3.25;;;;;;;13.70;100.00;101765.03;4969485;28;20521;-77
2023/08/10 01:55:20;;;;;;;11.27;3.50;;;;;;;13.73;100.00;101759.41;4969160;28;20110;-76
2023/08/10 01:57:47;;;;;;;7.72;3.28;;;;;;;13.75;100.00;101762.59;4969259;28;20054;-77
2023/08/10 02:00:14;;;;;;;11.40;3.28;;;;;;;13.75;100.00;101764.59;4968734;28;20086;-78
2023/08/10 02:02:41;;;;;;;9.43;3.03;;;;;;;13.75;100.00;101770.19;4968800;28;20078;-79
2023/08/10 02:05:11;;;;;;;10.25;3.00;;;;;;;13.77;100.00;101764.97;4965310;28;20054;-77
2023/08/10 02:07:38;;;;;;;8.88;2.90;;;;;;;13.76;100.00;101772.56;4969479;28;20070;-77
2023/08/10 02:10:05;;;;;;;7.97;2.95;;;;;;;13.63;100.00;101770.69;4970044;28;20042;-80
2023/08/10 02:12:32;;;;;;;8.35;3.50;;;;;;;13.53;100.00;101775.16;4969377;28;20133;-77
2023/08/10 02:14:59;;;;;;;10.68;3.90;;;;;;;13.50;100.00;101770.41;4968690;28;20055;-77
2023/08/10 02:17:28;;;;;;;9.70;3.60;;;;;;;13.52;100.00;101772.78;4964144;28;20176;-76
2023/08/10 02:19:56;;;;;;;10.82;3.50;;;;;;;13.46;100.00;101766.03;4973669;28;20152;-80
2023/08/10 02:22:23;;;;;;;11.90;3.35;;;;;;;13.48;100.00;101760.84;4969145;28;20137;-78
2023/08/10 02:24:49;;;;;;;12.95;3.42;;;;;;;13.43;100.00;101766.91;4968859;28;20046;-78
2023/08/10 02:27:16;;;;;;;9.05;3.50;;;;;;;13.47;100.00;101768.44;4970406;28;20046;-78
2023/08/10 02:29:42;;;;;;;9.70;3.70;;;;;;;13.56;100.00;101777.13;4970724;28;20043;-78
2023/08/10 02:32:09;;;;;;;17.58;3.90;;;;;;;13.65;100.00;101771.06;4969447;28;20047;-79
2023/08/10 02:34:35;;;;;;;9.95;3.67;;;;;;;13.70;100.00;101762.22;4971724;28;20050;-81
2023/08/10 02:37:02;;;;;;;11.95;3.58;;;;;;;13.66;100.00;101761.47;4969301;28;20095;-78
2023/08/10 02:39:28;;;;;;;12.15;4.75;;;;;;;13.65;100.00;101762.69;4969397;28;20054;-79
2023/08/10 02:41:55;;;;;;;16.33;4.22;;;;;;;13.71;100.00;101763.84;4969895;28;20057;-78
2023/08/10 02:44:22;;;;;;;10.70;3.17;;;;;;;13.76;100.00;101757.78;4969188;28;20050;-80
2023/08/10 02:46:48;;;;;;;13.45;3.33;;;;;;;13.84;100.00;101764.91;4969276;28;20055;-78
2023/08/10 02:49:15;;;;;;;7.47;2.97;;;;;;;13.88;100.00;101763.63;4968692;28;20102;-78
2023/08/10 02:51:42;;;;;;;9.10;3.33;;;;;;;13.90;100.00;101766.03;4967347;28;20074;-79
2023/08/10 02:54:08;;;;;;;12.23;3.28;;;;;;;13.91;100.00;101770.41;4969991;28;20086;-80
2023/08/10 02:56:35;;;;;;;11.10;3.72;;;;;;;13.87;100.00;101758.50;4956735;28;20357;-79
2023/08/10 02:59:01;;;;;;;12.38;3.42;;;;;;;13.79;100.00;101763.34;4969737;28;20051;-81
2023/08/10 03:01:28;;;;;;;11.70;3.10;;;;;;;13.78;100.00;101755.38;4971343;28;20051;-77
2023/08/10 03:03:54;;;;;;;11.00;3.17;;;;;;;13.72;100.00;101754.22;4969221;28;20059;-79
2023/08/10 03:06:21;;;;;;;11.30;3.40;;;;;;;13.76;100.00;101749.41;4971698;28;20063;-78
2023/08/10 03:08:47;;;;;;;8.45;3.00;;;;;;;13.81;100.00;101752.53;4960569;28;20463;-81
2023/08/10 03:11:14;;;;;;;12.63;3.47;;;;;;;13.84;100.00;101757.28;4969560;28;20130;-79
2023/08/10 03:13:40;;;;;;;7.78;3.10;;;;;;;13.85;100.00;101758.91;4965845;28;20156;-82
2023/08/10 03:16:07;;;;;;;11.70;2.90;;;;;;;13.93;100.00;101754.81;4969823;28;20125;-79
2023/08/10 03:18:33;;;;;;;10.95;2.95;;;;;;;13.90;100.00;101754.84;4969655;28;20636;-78
2023/08/10 03:21:00;;;;;;;9.65;2.95;;;;;;;13.91;100.00;101754.41;4978973;28;20514;-79
2023/08/10 03:23:27;;;;;;;10.15;3.17;;;;;;;13.93;100.00;101743.63;4977444;28;20506;-82
2023/08/10 03:25:53;;;;;;;10.80;3.10;;;;;;;13.93;100.00;101751.22;4971659;28;20571;-79
2023/08/10 03:28:20;;;;;;;12.13;3.10;;;;;;;13.99;100.00;101749.56;4971450;28;20051;-79
2023/08/10 03:30:47;;;;;;;9.95;3.00;;;;;;;13.91;100.00;101732.06;4975979;28;20547;-79
2023/08/10 03:33:14;;;;;;;8.75;2.90;;;;;;;13.95;100.00;101740.41;4972153;28;20053;-79
2023/08/10 03:35:40;;;;;;;10.20;3.22;;;;;;;13.93;100.00;101740.84;4972477;28;20082;-78
2023/08/10 03:38:07;;;;;;;9.38;3.55;;;;;;;13.93;100.00;101743.63;4972341;28;20057;-81
2023/08/10 03:40:33;;;;;;;10.32;3.72;;;;;;;13.94;100.00;101752.81;4978518;28;20145;-80
2023/08/10 03:43:00;;;;;;;7.53;3.15;;;;;;;13.92;100.00;101746.84;4972356;28;20519;-78
2023/08/10 03:45:27;;;;;;;11.80;3.10;;;;;;;13.93;100.00;101754.81;4971261;28;20055;-79
2023/08/10 03:47:54;;;;;;;8.93;3.20;;;;;;;13.90;100.00;101760.44;4974979;28;20100;-80
2023/08/10 03:50:20;;;;;;;12.68;4.25;;;;;;;13.90;100.00;101766.03;4972551;28;20062;-78
2023/08/10 03:52:47;;;;;;;8.70;2.95;;;;;;;13.83;100.00;101768.88;4972109;28;20050;-79
2023/08/10 03:55:14;;;;;;;10.98;3.35;;;;;;;13.80;100.00;101772.50;4971852;28;20098;-82
2023/08/10 03:57:41;;;;;;;10.75;3.40;;;;;;;13.72;100.00;101768.22;4970447;28;20585;-78
2023/08/10 04:00:10;;;;;;;7.60;2.85;;;;;;;13.72;100.00;101776.59;4971977;28;20047;-84
2023/08/10 04:02:36;;;;;;;10.48;2.95;;;;;;;13.71;100.00;101781.38;4971809;28;20081;-78
2023/08/10 04:05:06;;;;;;;8.75;3.28;;;;;;;13.67;100.00;101783.41;4971758;28;20408;-78
2023/08/10 04:07:33;;;;;;;12.32;3.10;;;;;;;13.64;100.00;101789.81;4971889;28;20071;-79
2023/08/10 04:10:00;;;;;;;10.45;3.35;;;;;;;13.66;100.00;101795.00;4964476;28;20053;-82
2023/08/10 04:12:27;;;;;;;9.30;3.20;;;;;;;13.61;100.00;101787.84;4971066;28;20092;-79
2023/08/10 04:14:54;;;;;;;9.68;3.33;;;;;;;13.58;100.00;101796.28;4974347;28;20541;-79
2023/08/10 04:17:20;;;;;;;8.93;3.22;;;;;;;13.54;100.00;101790.72;4972374;28;20125;-78
2023/08/10 04:19:47;;;;;;;9.02;3.13;;;;;;;13.53;100.00;101796.72;4980731;28;20129;-80
2023/08/10 04:22:14;;;;;;;9.65;3.65;;;;;;;13.47;100.00;101796.38;4960949;28;20078;-79
2023/08/10 04:24:41;;;;;;;11.57;3.30;;;;;;;13.45;100.00;101800.78;4970720;28;20082;-80
2023/08/10 04:27:07;;;;;;;10.35;3.50;;;;;;;13.42;100.00;101810.78;4971700;28;20191;-79
2023/08/10 04:29:34;;;;;;;8.95;3.97;;;;;;;13.41;100.00;101811.16;4974619;28;20454;-80
2023/08/10 04:32:00;;;;;;;14.88;4.70;;;;;;;13.39;100.00;101811.56;4969348;28;20757;-82
2023/08/10 04:34:28;;;;;;;11.35;3.50;;;;;;;13.32;100.00;101808.84;4970643;28;20102;-81
2023/08/10 04:36:54;;;;;;;7.97;3.42;;;;;;;13.15;100.00;101806.16;4953862;28;20585;-80
2023/08/10 04:39:21;;;;;;;15.10;3.60;;;;;;;13.02;100.00;101817.00;4970466;28;20079;-84
2023/08/10 04:41:47;;;;;;;10.52;3.92;;;;;;;12.95;100.00;101811.47;4970046;28;20105;-78
2023/08/10 04:44:14;;;;;;;13.82;4.18;;;;;;;12.90;100.00;101811.09;4967410;28;20051;-79
2023/08/10 04:46:41;;;;;;;14.25;5.25;;;;;;;12.80;100.00;101817.53;4968966;28;20089;-78
2023/08/10 04:49:07;;;;;;;15.02;4.38;;;;;;;12.84;100.00;101818.31;4970933;28;20113;-79
2023/08/10 04:51:34;;;;;;;14.65;4.82;;;;;;;12.91;100.00;101826.63;4972240;28;20109;-81
2023/08/10 04:54:01;;;;;;;20.13;4.63;;;;;;;12.93;100.00;101818.66;4959716;28;20095;-77
2023/08/10 04:56:27;;;;;;;13.85;5.30;;;;;;;12.94;100.00;101825.84;4970523;28;20093;-82
2023/08/10 04:58:54;;;;;;;16.35;5.10;;;;;;;12.98;100.00;101834.97;4970233;28;20137;-79
2023/08/10 05:01:20;;;;;;;14.68;4.53;;;;;;;12.99;100.00;101829.00;4971221;28;20081;-78
2023/08/10 05:03:48;;;;;;;12.73;4.90;;;;;;;12.99;100.00;101822.63;4963834;28;20047;-80
2023/08/10 05:06:15;;;;;;;19.42;3.97;;;;;;;12.98;100.00;101832.19;4967071;28;20043;-82
2023/08/10 05:08:42;;;;;;;13.48;4.32;;;;;;;12.92;100.00;101826.25;4968177;28;20097;-79
2023/08/10 05:11:09;;;;;;;15.20;4.78;;;;;;;12.89;100.00;101826.28;4970426;28;20118;-78
2023/08/10 05:13:36;;;;;;;15.23;5.00;;;;;;;12.81;100.00;101822.72;4973416;28;20051;-82
2023/08/10 05:16:03;;;;;;;20.85;4.95;;;;;;;12.83;100.00;101842.63;4970103;28;20482;-79
2023/08/10 05:18:30;;;;;;;15.85;5.80;;;;;;;12.80;100.00;101831.50;4966568;28;20491;-80
2023/08/10 05:21:00;;;;;;;17.02;5.93;;;;;;;12.81;100.00;101839.47;4970477;28;20078;-78
2023/08/10 05:23:27;;;;;;;16.75;5.03;;;;;;;12.81;100.00;101844.22;4970653;28;20054;-84
2023/08/10 05:25:53;;;;;;;15.55;4.78;;;;;;;12.74;100.00;101844.28;4972036;28;20043;-79
2023/08/10 05:28:20;;;;;;;14.00;4.68;;;;;;;12.72;100.00;101850.25;4969402;28;20054;-82
2023/08/10 05:30:46;;;;;;;15.68;4.97;;;;;;;12.80;100.00;101848.22;4969197;28;20074;-79
2023/08/10 05:33:13;;;;;;;18.42;4.78;;;;;;;12.91;100.00;101846.19;4968236;28;20090;-78
2023/08/10 05:35:40;;;;;;;24.13;6.78;;;;;;;13.01;100.00;101848.13;4970521;28;20051;-79
2023/08/10 05:38:08;;;;;;;12.73;4.75;;;;;;;13.01;100.00;101848.13;4972618;28;20055;-79
2023/08/10 05:40:34;;;;;;;14.00;4.80;;;;;;;12.89;100.00;101843.03;4973893;28;20134;-80
2023/08/10 05:43:01;;;;;;;14.35;5.43;;;;;;;12.95;100.00;101846.94;4965043;28;20109;-81
2023/08/10 05:45:28;;;;;;;13.30;4.93;;;;;;;13.03;100.00;101845.72;4962942;28;20054;-79
2023/08/10 05:47:54;;;;;;;11.35;4.72;;;;;;;13.02;100.00;101847.72;4973995;28;20050;-82
2023/08/10 05:50:21;;;;;;;18.27;5.13;;;;;;;13.09;100.00;101849.66;4970316;28;20157;-79
2023/08/10 05:52:48;;;;;;;12.73;4.50;;;;;;;13.03;100.00;101843.72;4971640;28;20054;-78
2023/08/10 05:55:15;;;;;;;17.75;5.07;;;;;;;13.04;100.00;101830.56;4971024;28;20078;-82
2023/08/10 05:57:42;;;;;;;17.30;5.63;;;;;;;13.19;100.00;101837.63;4969844;28;20465;-79
2023/08/10 06:00:11;;;;;;;16.52;5.35;;;;;;;13.31;100.00;101845.53;4969498;28;20042;-78
2023/08/10 06:02:38;;;;;;;23.45;4.82;;;;;;;13.41;100.00;101837.09;4966007;28;20082;-79
2023/08/10 06:05:06;;;;;;;17.35;5.15;;;;;;;13.41;100.00;101839.09;4970117;28;20137;-78
2023/08/10 06:07:34;;;;;;;16.23;5.05;;;;;;;13.51;100.00;101843.84;4970420;28;20054;-78
2023/08/10 06:10:00;;;;;;;26.25;5.68;;;;;;;13.63;100.00;101846.13;4971525;28;20134;-79
2023/08/10 06:12:27;;;;;;;16.70;5.03;;;;;;;13.64;100.00;101842.94;4953216;28;20169;-81
2023/08/10 06:14:54;;;;;;;18.38;5.60;;;;;;;13.73;100.00;101839.66;4965124;28;20090;-79
2023/08/10 06:17:21;;;;;;;15.75;4.88;;;;;;;13.79;100.00;101838.81;4968896;28;20084;-78
2023/08/10 06:19:57;;;;;;;17.20;5.10;;;;;;;13.92;100.00;101839.91;4968131;28;20059;-78
2023/08/10 06:22:25;;;;;;;13.93;4.78;;;;;;;14.02;100.00;101836.22;4968984;28;20051;-78
2023/08/10 06:24:52;;;;;;;15.45;5.30;;;;;;;14.19;100.00;101834.44;4970103;28;20050;-78
2023/08/10 06:27:18;;;;;;;17.00;5.28;;;;;;;14.22;100.00;101828.00;4969316;28;20176;-83
2023/08/10 06:29:45;;;;;;;16.25;4.82;;;;;;;14.31;100.00;101831.91;4955919;28;20051;-79
2023/08/10 06:32:11;;;;;;;14.40;4.68;;;;;;;14.45;100.00;101826.16;4968956;28;20043;-80
2023/08/10 06:34:38;;;;;;;15.98;5.93;;;;;;;14.67;100.00;101823.91;4966524;28;20054;-80
2023/08/10 06:37:05;;;;;;;16.35;4.70;;;;;;;14.80;100.00;101822.94;4969579;28;20074;-79
2023/08/10 06:39:32;;;;;;;18.48;5.20;;;;;;;14.96;100.00;101825.13;4973947;28;20055;-79
2023/08/10 06:42:02;;;;;;;12.98;4.22;;;;;;;15.03;100.00;101827.81;4977065;28;20050;-79
2023/08/10 06:44:29;;;;;;;11.93;4.43;;;;;;;15.18;100.00;101820.00;4966762;28;20404;-79
2023/08/10 06:46:55;;;;;;;14.18;4.10;;;;;;;15.13;100.00;101809.28;4971081;28;20050;-79
2023/08/10 06:49:23;;;;;;;9.25;3.63;;;;;;;15.15;100.00;101804.81;4973979;28;20086;-78
2023/08/10 06:51:50;;;;;;;14.18;4.28;;;;;;;15.19;100.00;101797.16;4969777;28;20126;-78
2023/08/10 06:54:17;;;;;;;13.80;3.00;;;;;;;15.08;100.00;101804.94;4973137;28;20170;-78
2023/08/10 06:56:44;;;;;;;17.20;3.75;;;;;;;15.03;100.00;101803.38;4973948;28;20514;-78
2023/08/10 06:59:11;;;;;;;18.63;3.80;;;;;;;14.98;100.00;101817.06;4973446;28;20094;-78
2023/08/10 07:01:41;;;;;;;14.10;3.30;;;;;;;15.21;100.00;101816.34;4931662;29;20100;-78
2023/08/10 07:04:07;;;;;;;11.23;3.38;;;;;;;15.22;100.00;101823.56;4934270;29;20051;-78
2023/08/10 07:06:34;;;;;;;13.68;3.50;;;;;;;15.27;100.00;101823.88;4933632;29;20431;-78
2023/08/10 07:09:00;;;;;;;18.75;3.60;;;;;;;15.33;100.00;101813.78;4937204;29;20090;-76
2023/08/10 07:11:27;;;;;;;7.43;2.97;;;;;;;15.43;100.00;101810.03;4938509;29;20110;-77
2023/08/10 07:13:53;;;;;;;10.73;3.20;;;;;;;15.61;100.00;101816.16;4944260;29;20044;-77
2023/08/10 07:16:20;;;;;;;9.95;3.33;;;;;;;15.69;100.00;101820.41;4932769;29;20055;-75
2023/08/10 07:18:47;;;;;;;12.60;3.25;;;;;;;15.82;100.00;101812.16;4943078;29;20052;-77
2023/08/10 07:21:13;;;;;;;9.70;3.20;;;;;;;15.91;100.00;101810.41;4937693;29;20550;-79
2023/08/10 07:23:40;;;;;;;17.63;3.70;;;;;;;16.04;100.00;101808.53;4954447;28;20506;-78
2023/08/10 07:26:06;;;;;;;13.40;3.28;;;;;;;15.66;100.00;101810.03;4957826;28;20050;-78
2023/08/10 07:28:33;;;;;;;8.32;2.60;;;;;;;15.71;100.00;101800.34;4951009;28;20078;-78
2023/08/10 07:31:00;;;;;;;12.90;2.85;;;;;;;15.79;100.00;101801.81;4953716;28;20078;-79
2023/08/10 07:33:28;;;;;;;14.77;3.42;;;;;;;15.88;100.00;101805.66;4952040;29;20066;-79
2023/08/10 07:35:54;;;;;;;16.63;4.57;;;;;;;16.07;100.00;101802.06;4942300;29;20141;-79
2023/08/10 07:38:21;;;;;;;13.48;2.75;;;;;;;16.15;100.00;101809.16;4952363;29;20123;-78
2023/08/10 07:40:47;;;;;;;14.82;2.70;;;;;;;16.12;100.00;101800.78;4953953;29;20133;-77
2023/08/10 07:43:14;;;;;;;12.27;2.22;;;;;;;16.11;100.00;101808.44;4950790;28;20094;-78
2023/08/10 07:45:40;;;;;;;9.25;2.60;;;;;;;16.04;100.00;101797.31;4947218;28;20074;-77
2023/08/10 07:48:07;;;;;;;13.60;3.78;;;;;;;16.20;100.00;101808.66;4953963;28;20047;-77
2023/08/10 07:50:34;;;;;;;12.38;3.30;;;;;;;16.26;100.00;101804.16;4956386;28;20134;-78
2023/08/10 07:53:03;;;;;;;13.90;3.17;;;;;;;16.31;100.00;101808.47;4959200;28;20086;-78
2023/08/10 07:55:29;;;;;;;5.38;2.40;;;;;;;16.25;100.00;101808.19;4953945;28;20094;-78
2023/08/10 07:57:56;;;;;;;9.05;2.53;;;;;;;16.11;100.00;101808.44;4958887;28;20043;-78
2023/08/10 08:00:23;;;;;;;11.75;3.40;;;;;;;16.37;100.00;101799.13;4952656;29;20098;-78
2023/08/10 08:02:49;;;;;;;14.27;3.10;;;;;;;16.49;100.00;101792.88;4948517;28;20066;-76
2023/08/10 08:05:17;;;;;;;15.35;3.20;;;;;;;16.60;100.00;101795.44;4952654;28;20048;-76
2023/08/10 08:07:44;;;;;;;8.98;2.92;;;;;;;16.63;100.00;101789.75;4986271;28;20097;-77
2023/08/10 08:10:11;;;;;;;5.07;1.73;;;;;;;16.43;100.00;101793.78;4969535;28;20054;-78
2023/08/10 08:12:38;;;;;;;4.25;1.58;;;;;;;16.45;100.00;101782.94;4972080;28;20086;-77
2023/08/10 08:15:05;;;;;;;3.83;1.35;;;;;;;16.46;100.00;101778.88;4971346;28;20062;-79
2023/08/10 08:18:30;;;;;;;10.60;2.65;;;;;;;16.69;100.00;101785.22;4971302;28;20055;-76
2023/08/10 08:20:57;;;;;;;8.27;2.40;;;;;;;16.85;100.00;101788.06;4913438;29;20060;-78
2023/08/10 08:23:24;;;;;;;7.88;2.50;;;;;;;16.96;100.00;101787.81;4909337;29;20717;-77
2023/08/10 08:25:50;;;;;;;9.23;2.25;;;;;;;17.06;100.00;101789.59;4941679;28;20502;-78
2023/08/10 08:28:17;;;;;;;12.25;2.00;;;;;;;17.02;100.00;101786.09;4971729;28;20609;-78
2023/08/10 08:30:43;;;;;;;8.82;2.25;;;;;;;17.20;100.00;101786.47;4956849;28;20443;-78
2023/08/10 08:33:10;;;;;;;9.20;2.15;;;;;;;17.19;100.00;101788.50;4972423;28;20047;-77
2023/08/10 08:35:37;;;;;;;9.82;2.33;;;;;;;17.34;100.00;101781.31;4963970;28;20522;-78
2023/08/10 08:38:05;;;;;;;3.03;1.70;;;;;;;17.30;100.00;101789.06;4967951;28;20054;-77
2023/08/10 08:40:32;;;;;;;5.57;2.00;;;;;;;17.08;100.00;101778.72;4967848;28;20051;-76
2023/08/10 08:43:02;;;;;;;9.70;2.10;;;;;;;17.23;100.00;101777.97;4968927;28;20105;-79
2023/08/10 08:45:30;;;;;;;8.32;1.92;;;;;;;17.53;100.00;101781.66;4966726;28;20848;-77
2023/08/10 08:47:57;;;;;;;7.20;1.90;;;;;;;17.67;100.00;101778.47;4972040;28;20098;-78
2023/08/10 08:50:26;;;;;;;5.15;1.85;;;;;;;17.75;100.00;101783.47;4973548;28;20146;-78
2023/08/10 08:52:54;;;;;;;8.30;2.08;;;;;;;17.89;100.00;101782.34;4967008;28;20110;-79
2023/08/10 08:55:21;;;;;;;11.07;2.45;;;;;;;17.98;100.00;101777.69;4975957;28;20099;-78
2023/08/10 08:57:49;;;;;;;7.18;1.88;;;;;;;18.08;100.00;101778.59;4956446;28;20094;-81
2023/08/10 09:00:16;;;;;;;8.65;2.25;;;;;;;18.15;100.00;101770.75;4976278;28;20593;-78
2023/08/10 09:02:45;;;;;;;8.40;2.17;;;;;;;18.20;100.00;101775.06;4972427;28;20077;-78
2023/08/10 09:05:12;;;;;;;6.57;1.60;;;;;;;18.32;100.00;101772.28;4975411;28;20062;-78
2023/08/10 09:07:38;;;;;;;8.68;2.40;;;;;;;18.29;100.00;101776.00;4970141;28;20046;-78
2023/08/10 09:10:05;;;;;;;11.68;2.45;;;;;;;18.30;100.00;101765.53;4965003;28;20106;-79
2023/08/10 09:12:37;;;;;;;8.63;1.80;;;;;;;18.29;100.00;101769.59;4968506;28;20109;-79
2023/08/10 09:15:12;;;;;;;8.57;2.05;;;;;;;18.41;100.00;101766.81;4972479;28;20046;-78
2023/08/10 09:17:43;;;;;;;8.95;2.15;;;;;;;18.65;100.00;101764.47;4973547;28;20059;-78
2023/08/10 09:20:17;;;;;;;7.25;1.80;;;;;;;18.61;100.00;101758.16;4972703;28;20054;-77
2023/08/10 09:22:45;;;;;;;10.35;2.85;;;;;;;18.75;100.00;101764.19;4952176;28;20047;-77
2023/08/10 09:25:12;;;;;;;10.60;2.03;;;;;;;18.69;100.00;101756.72;4969329;28;20404;-79
2023/08/10 09:27:38;;;;;;;6.28;2.00;;;;;;;18.83;100.00;101761.94;4969004;28;20059;-76
2023/08/10 09:30:07;;;;;;;6.85;1.70;;;;;;;18.84;100.00;101755.09;4968922;28;20129;-75
2023/08/10 09:32:35;;;;;;;5.35;1.52;;;;;;;19.04;100.00;101764.09;4966132;28;20125;-75
2023/08/10 09:35:03;;;;;;;10.27;1.90;;;;;;;19.08;100.00;101768.41;4968173;28;20050;-75
2023/08/10 09:37:29;;;;;;;5.28;1.73;;;;;;;18.93;100.00;101755.97;4950733;28;20472;-78
2023/08/10 09:39:59;;;;;;;4.07;1.48;;;;;;;19.08;100.00;101756.31;4964990;28;20542;-75
2023/08/10 09:42:31;;;;;;;6.85;1.83;;;;;;;19.15;100.00;101759.72;4968433;28;20050;-77
2023/08/10 09:45:09;;;;;;;3.47;1.50;;;;;;;19.38;100.00;101767.00;4966918;28;20101;-76
2023/08/10 09:47:38;;;;;;;5.75;1.55;;;;;;;19.56;100.00;101758.78;4972085;28;20499;-77
2023/08/10 09:50:09;;;;;;;7.03;2.08;;;;;;;19.74;100.00;101767.41;4969208;28;20050;-76
2023/08/10 09:52:36;;;;;;;7.72;1.50;;;;;;;19.96;100.00;101773.88;4969304;28;20478;-77
2023/08/10 09:55:05;;;;;;;5.97;1.63;;;;;;;20.22;100.00;101774.56;4969444;28;20465;-76
2023/08/10 09:57:33;;;;;;;4.97;1.55;;;;;;;20.34;100.00;101770.91;4960858;28;20066;-78
2023/08/10 10:00:00;;;;;;;4.45;1.40;;;;;;;20.33;100.00;101772.16;4982750;28;20138;-77
2023/08/10 10:02:27;;;;;;;3.05;1.70;;;;;;;20.38;100.00;101772.34;4967806;28;20074;-76
2023/08/10 10:04:54;;;;;;;5.50;1.55;;;;;;;20.55;100.00;101778.63;4969607;28;20079;-77
2023/08/10 10:07:27;;;;;;;6.38;1.63;;;;;;;20.71;100.00;101776.34;4978236;28;20058;-75
2023/08/10 10:09:56;;;;;;;3.33;1.65;;;;;;;20.69;100.00;101770.34;4951369;28;20434;-79
2023/08/10 10:12:24;;;;;;;5.50;1.65;;;;;;;20.74;100.00;101774.63;4969954;28;20062;-81
2023/08/10 10:14:51;;;;;;;6.50;1.95;;;;;;;20.64;100.00;101773.78;4969863;28;20153;-78
2023/08/10 10:17:19;;;;;;;10.45;1.73;;;;;;;20.77;100.00;101770.88;4967929;28;20113;-78
2023/08/10 10:19:51;;;;;;;6.22;1.70;;;;;;;20.87;100.00;101764.03;4964528;28;20620;-78
2023/08/10 10:22:18;;;;;;;7.20;2.85;;;;;;;20.93;100.00;101754.50;4967592;28;20499;-77
2023/08/10 10:24:47;;;;;;;4.93;1.55;;;;;;;21.04;100.00;101740.75;4970917;28;20078;-75
2023/08/10 10:27:13;;;;;;;4.88;1.60;;;;;;;21.20;100.00;101746.09;4968466;28;20051;-75
2023/08/10 10:29:52;;;;;;;5.85;1.73;;;;;;;21.26;100.00;101747.06;4973937;28;20138;-74
2023/08/10 10:32:20;;;;;;;4.97;1.58;;;;;;;21.34;100.00;101742.72;4972188;28;20475;-76
2023/08/10 10:34:49;;;;;;;4.70;1.60;;;;;;;21.44;100.00;101744.28;4972772;28;20165;-80
2023/08/10 10:37:18;;;;;;;6.70;1.90;;;;;;;21.36;100.00;101747.88;4974519;28;20043;-79
2023/08/10 10:39:50;;;;;;;8.75;2.10;;;;;;;21.48;100.00;101739.28;4973642;28;20054;-77
2023/08/10 10:42:18;;;;;;;3.55;1.45;;;;;;;21.72;100.00;101756.47;4973694;28;20055;-76
2023/08/10 10:45:06;;;;;;;5.53;1.58;;;;;;;21.73;100.00;101746.72;4968377;28;20058;-78
2023/08/10 10:47:38;;;;;;;5.40;2.00;;;;;;;21.80;100.00;101746.41;4973353;28;20055;-76
2023/08/10 10:50:24;;;;;;;9.38;1.95;;;;;;;21.79;100.00;101748.47;4974729;28;20082;-76
2023/08/10 10:52:55;;;;;;;4.22;1.77;;;;;;;21.92;100.00;101743.44;4972275;28;20090;-76
2023/08/10 10:55:35;;;;;;;5.15;1.80;;;;;;;21.98;100.00;101741.53;4970386;28;20097;-79
2023/08/10 10:58:03;;;;;;;6.13;1.80;;;;;;;22.15;100.00;101744.84;4971750;28;20047;-76
2023/08/10 11:00:31;;;;;;;5.35;1.90;;;;;;;22.42;100.00;101744.06;4973108;28;20055;-80
2023/08/10 11:02:59;;;;;;;6.40;1.83;;;;;;;22.55;100.00;101731.28;4956491;28;20130;-77
2023/08/10 11:05:25;;;;;;;5.25;1.80;;;;;;;22.61;100.00;101734.25;4971245;28;20055;-77
2023/08/10 11:07:55;;;;;;;6.00;1.75;;;;;;;22.67;100.00;101735.16;4954241;28;20585;-75
2023/08/10 11:10:22;;;;;;;3.92;1.80;;;;;;;22.61;100.00;101732.19;4966659;28;20051;-77
2023/08/10 11:12:49;;;;;;;10.10;2.70;;;;;;;22.86;100.00;101739.50;4968516;28;20051;-75
2023/08/10 11:15:18;;;;;;;5.82;1.67;;;;;;;22.89;100.00;101730.06;4970036;28;20540;-79